Time;durP1;ratioP1;P1;durP2;ratioP2;P2;SDS_P1;SDS_P2;PMS_P1;PMS_P2;Temp;Humidity;BMP_temperature;BMP_pressure;BME280_temperature;BME280_humidity;BME280_pressure;Samples;Min_cycle;Max_cycle;Signal;HPM_P1;HPM_P2
2023/07/12 00:01:04;;;;;;;0.80;0.70;;;;;;;;;;5059739;28;20450;-75
2023/07/12 00:03:32;;;;;;;0.80;0.73;;;;;;;;;;5061572;28;20439;-74
2023/07/12 00:05:58;;;;;;;0.97;0.90;;;;;;;;;;5057155;28;20535;-74
2023/07/12 00:08:26;;;;;;;0.80;0.70;;;;;;;;;;5055931;28;20494;-75
2023/07/12 00:10:55;;;;;;;0.80;0.70;;;;;;;;;;5058129;28;20532;-75
2023/07/12 00:13:23;;;;;;;0.90;0.80;;;;;;;;;;5058965;28;20431;-75
2023/07/12 00:15:50;;;;;;;0.80;0.70;;;;;;;;;;5054690;28;20411;-75
2023/07/12 00:18:18;;;;;;;0.80;0.70;;;;;;;;;;5051677;28;20468;-75
2023/07/12 00:20:45;;;;;;;0.80;0.70;;;;;;;;;;5052116;28;21298;-75
2023/07/12 00:23:12;;;;;;;0.80;0.70;;;;;;;;;;5058873;28;20565;-74
2023/07/12 00:25:39;;;;;;;2.00;1.90;;;;;;;;;;5059395;28;20791;-72
2023/07/12 00:28:17;;;;;;;0.77;0.67;;;;;;;;;;5054709;28;20435;-75
2023/07/12 00:30:45;;;;;;;0.80;0.70;;;;;;;;;;5056687;28;20519;-74
2023/07/12 00:33:11;;;;;;;0.80;0.70;;;;;;;;;;5056116;28;20432;-75
2023/07/12 00:35:40;;;;;;;0.80;0.77;;;;;;;;;;5056542;28;20484;-74
2023/07/12 00:38:09;;;;;;;1.43;1.33;;;;;;;;;;5059762;28;20563;-75
2023/07/12 00:40:46;;;;;;;0.80;0.70;;;;;;;;;;5055140;28;20559;-72
2023/07/12 00:43:19;;;;;;;0.80;0.70;;;;;;;;;;5059422;28;20428;-75
2023/07/12 00:45:47;;;;;;;0.80;0.80;;;;;;;;;;5050138;28;20444;-75
2023/07/12 00:48:14;;;;;;;1.00;0.90;;;;;;;;;;5042628;28;20492;-74
2023/07/12 00:50:41;;;;;;;0.70;0.70;;;;;;;;;;5053513;28;20539;-75
2023/07/12 00:53:11;;;;;;;0.80;0.77;;;;;;;;;;5071835;28;20553;-75
2023/07/12 00:55:55;;;;;;;0.80;0.70;;;;;;;;;;5071033;28;20471;-74
2023/07/12 00:58:23;;;;;;;0.80;0.70;;;;;;;;;;5049706;28;20469;-76
2023/07/12 01:00:50;;;;;;;0.80;0.70;;;;;;;;;;5050802;28;20447;-74
2023/07/12 01:03:18;;;;;;;0.80;0.80;;;;;;;;;;5039468;28;20454;-74
2023/07/12 01:05:45;;;;;;;0.70;0.60;;;;;;;;;;5054892;28;20523;-75
2023/07/12 01:08:13;;;;;;;0.70;0.70;;;;;;;;;;5046936;28;20456;-74
2023/07/12 01:10:40;;;;;;;0.70;0.60;;;;;;;;;;5056703;28;20985;-73
2023/07/12 01:13:07;;;;;;;0.80;0.80;;;;;;;;;;5059585;28;20444;-72
2023/07/12 01:15:35;;;;;;;0.93;0.93;;;;;;;;;;5053806;28;20526;-73
2023/07/12 01:18:02;;;;;;;0.77;0.63;;;;;;;;;;5045728;28;20514;-72
2023/07/12 01:20:33;;;;;;;0.80;0.70;;;;;;;;;;5054259;28;20445;-73
2023/07/12 01:23:02;;;;;;;1.17;1.00;;;;;;;;;;5052666;28;20457;-71
2023/07/12 01:25:33;;;;;;;0.80;0.80;;;;;;;;;;5054098;28;20439;-73
2023/07/12 01:27:59;;;;;;;0.70;0.70;;;;;;;;;;5051942;28;20481;-71
2023/07/12 01:30:26;;;;;;;4.67;1.00;;;;;;;;;;5053883;28;20437;-73
2023/07/12 01:32:53;;;;;;;0.80;0.70;;;;;;;;;;5066711;28;20449;-71
2023/07/12 01:35:19;;;;;;;0.80;0.80;;;;;;;;;;5042196;28;20444;-72
2023/07/12 01:37:46;;;;;;;0.73;0.67;;;;;;;;;;5057617;28;20456;-71
2023/07/12 01:40:14;;;;;;;0.70;0.60;;;;;;;;;;5057867;28;20481;-73
2023/07/12 01:42:41;;;;;;;0.70;0.60;;;;;;;;;;5056629;28;20439;-73
2023/07/12 01:45:09;;;;;;;0.80;0.70;;;;;;;;;;5058794;28;20978;-73
2023/07/12 01:47:36;;;;;;;0.80;0.70;;;;;;;;;;5057996;28;20502;-72
2023/07/12 01:50:03;;;;;;;0.70;0.67;;;;;;;;;;5056736;28;20463;-73
2023/07/12 01:52:29;;;;;;;0.80;0.70;;;;;;;;;;5057047;28;20472;-72
2023/07/12 01:54:57;;;;;;;0.70;0.70;;;;;;;;;;5055864;28;20949;-71
2023/07/12 01:57:25;;;;;;;0.80;0.70;;;;;;;;;;5053166;28;20439;-71
2023/07/12 01:59:51;;;;;;;0.70;0.60;;;;;;;;;;5031024;28;21050;-72
2023/07/12 02:02:18;;;;;;;3.10;1.77;;;;;;;;;;5051482;28;20895;-71
2023/07/12 02:04:45;;;;;;;0.80;0.70;;;;;;;;;;5060332;28;20515;-72
2023/07/12 02:07:12;;;;;;;0.80;0.70;;;;;;;;;;5054613;28;20453;-71
2023/07/12 02:09:40;;;;;;;1.10;1.10;;;;;;;;;;5067241;28;20469;-71
2023/07/12 02:12:07;;;;;;;0.70;0.60;;;;;;;;;;5059582;28;20560;-70
2023/07/12 02:14:36;;;;;;;0.70;0.70;;;;;;;;;;5053922;28;20433;-72
2023/07/12 02:17:03;;;;;;;0.70;0.60;;;;;;;;;;5051662;28;20987;-70
2023/07/12 02:19:29;;;;;;;0.70;0.60;;;;;;;;;;5052427;28;20556;-72
2023/07/12 02:21:56;;;;;;;0.83;0.83;;;;;;;;;;5052162;28;20575;-73
2023/07/12 02:24:23;;;;;;;0.80;0.80;;;;;;;;;;5057725;28;20437;-72
2023/07/12 02:26:49;;;;;;;0.80;0.70;;;;;;;;;;5056690;28;20442;-72
2023/07/12 02:29:16;;;;;;;0.77;0.73;;;;;;;;;;5061289;28;20514;-72
2023/07/12 02:31:43;;;;;;;0.73;0.70;;;;;;;;;;5056214;28;20461;-73
2023/07/12 02:34:10;;;;;;;1.20;1.10;;;;;;;;;;5057627;28;20861;-72
2023/07/12 02:36:37;;;;;;;0.80;0.70;;;;;;;;;;5058529;28;20465;-71
2023/07/12 02:39:03;;;;;;;0.70;0.70;;;;;;;;;;5064895;28;20530;-71
2023/07/12 02:41:30;;;;;;;0.70;0.60;;;;;;;;;;5056469;28;20431;-70
2023/07/12 02:43:56;;;;;;;0.70;0.60;;;;;;;;;;5058440;28;20435;-72
2023/07/12 02:46:23;;;;;;;0.73;0.70;;;;;;;;;;5055749;28;20447;-72
2023/07/12 02:48:51;;;;;;;0.70;0.70;;;;;;;;;;5056665;28;20430;-73
2023/07/12 02:51:17;;;;;;;0.80;0.80;;;;;;;;;;5058546;28;20530;-72
2023/07/12 02:53:44;;;;;;;0.70;0.70;;;;;;;;;;5058569;28;20454;-70
2023/07/12 02:56:10;;;;;;;0.70;0.63;;;;;;;;;;5058107;28;20484;-73
2023/07/12 02:58:37;;;;;;;0.80;0.80;;;;;;;;;;5058284;28;20487;-72
2023/07/12 03:01:04;;;;;;;0.73;0.70;;;;;;;;;;5057422;28;20433;-72
2023/07/12 03:03:31;;;;;;;2.40;2.30;;;;;;;;;;5054229;28;20450;-73
2023/07/12 03:06:02;;;;;;;0.80;0.80;;;;;;;;;;5064519;28;20445;-72
2023/07/12 03:08:29;;;;;;;0.70;0.70;;;;;;;;;;5059504;28;20480;-71
2023/07/12 03:10:57;;;;;;;2.13;0.93;;;;;;;;;;5059523;28;20474;-72
2023/07/12 03:13:23;;;;;;;1.70;1.60;;;;;;;;;;5058109;28;20542;-72
2023/07/12 03:15:50;;;;;;;0.70;0.60;;;;;;;;;;5057986;28;20526;-73
2023/07/12 03:18:16;;;;;;;0.77;0.77;;;;;;;;;;5053446;28;20447;-73
2023/07/12 03:20:43;;;;;;;0.80;0.73;;;;;;;;;;5052907;28;20795;-73
2023/07/12 03:23:11;;;;;;;0.80;0.70;;;;;;;;;;5039163;28;20593;-71
2023/07/12 03:25:37;;;;;;;0.70;0.70;;;;;;;;;;5053057;28;20439;-73
2023/07/12 03:28:04;;;;;;;0.80;0.70;;;;;;;;;;5038197;28;20458;-72
2023/07/12 03:30:30;;;;;;;0.70;0.67;;;;;;;;;;5059669;28;20445;-71
2023/07/12 03:32:57;;;;;;;0.70;0.70;;;;;;;;;;5060442;28;20529;-72
2023/07/12 03:35:24;;;;;;;0.80;0.77;;;;;;;;;;5057571;28;20454;-71
2023/07/12 03:37:50;;;;;;;1.00;0.90;;;;;;;;;;5060311;28;20455;-71
2023/07/12 03:40:18;;;;;;;0.70;0.70;;;;;;;;;;5059911;28;20473;-74
2023/07/12 03:42:45;;;;;;;0.70;0.70;;;;;;;;;;5056546;28;20464;-73
2023/07/12 03:45:11;;;;;;;0.70;0.63;;;;;;;;;;5057435;28;20433;-73
2023/07/12 03:47:38;;;;;;;0.80;0.73;;;;;;;;;;5050929;28;20435;-73
2023/07/12 03:50:05;;;;;;;0.70;0.70;;;;;;;;;;5054760;28;20825;-72
2023/07/12 03:52:32;;;;;;;0.80;0.70;;;;;;;;;;5057389;28;20540;-71
2023/07/12 03:54:58;;;;;;;0.70;0.70;;;;;;;;;;5059236;28;20526;-73
2023/07/12 03:57:26;;;;;;;0.80;0.70;;;;;;;;;;5043903;28;20583;-74
2023/07/12 03:59:53;;;;;;;0.70;0.60;;;;;;;;;;5055577;28;20554;-73
2023/07/12 04:02:19;;;;;;;0.70;0.70;;;;;;;;;;5053854;28;20436;-73
2023/07/12 04:04:46;;;;;;;0.73;0.70;;;;;;;;;;5059796;28;20438;-74
2023/07/12 04:07:12;;;;;;;0.70;0.70;;;;;;;;;;5059259;28;20464;-74
2023/07/12 04:09:39;;;;;;;0.70;0.70;;;;;;;;;;5054454;28;20531;-73
2023/07/12 04:12:06;;;;;;;0.70;0.70;;;;;;;;;;5060362;28;20445;-72
2023/07/12 04:14:34;;;;;;;0.80;0.70;;;;;;;;;;5059610;28;20474;-73
2023/07/12 04:17:01;;;;;;;0.70;0.63;;;;;;;;;;5054675;28;20469;-73
2023/07/12 04:19:27;;;;;;;0.70;0.60;;;;;;;;;;5062678;28;20819;-73
2023/07/12 04:21:54;;;;;;;0.70;0.70;;;;;;;;;;5057866;28;20438;-74
2023/07/12 04:24:21;;;;;;;0.80;0.80;;;;;;;;;;5058717;28;20435;-71
2023/07/12 04:26:48;;;;;;;0.70;0.60;;;;;;;;;;5054972;28;20450;-71
2023/07/12 04:29:15;;;;;;;0.70;0.60;;;;;;;;;;5056285;28;20544;-72
2023/07/12 04:31:43;;;;;;;0.70;0.60;;;;;;;;;;5059239;28;20506;-71
2023/07/12 04:34:09;;;;;;;0.70;0.70;;;;;;;;;;5053922;28;20437;-71
2023/07/12 04:36:37;;;;;;;0.90;0.90;;;;;;;;;;5063304;28;20543;-72
2023/07/12 04:39:03;;;;;;;0.70;0.70;;;;;;;;;;5053107;28;20871;-73
2023/07/12 04:41:30;;;;;;;0.70;0.60;;;;;;;;;;5050163;28;20487;-73
2023/07/12 04:43:57;;;;;;;1.23;1.13;;;;;;;;;;5055616;28;20476;-72
2023/07/12 04:46:23;;;;;;;0.70;0.67;;;;;;;;;;5055025;28;20850;-73
2023/07/12 04:48:51;;;;;;;0.70;0.70;;;;;;;;;;5053951;28;20433;-73
2023/07/12 04:51:22;;;;;;;0.70;0.60;;;;;;;;;;5056231;28;20456;-71
2023/07/12 04:53:48;;;;;;;0.70;0.60;;;;;;;;;;5055846;28;20569;-73
2023/07/12 04:56:15;;;;;;;0.70;0.70;;;;;;;;;;5053755;28;20471;-73
2023/07/12 04:58:45;;;;;;;0.70;0.70;;;;;;;;;;5056545;28;20534;-71
2023/07/12 05:01:13;;;;;;;0.70;0.67;;;;;;;;;;5055478;28;20977;-72
2023/07/12 05:03:39;;;;;;;0.70;0.63;;;;;;;;;;5054607;28;20560;-73
2023/07/12 05:06:07;;;;;;;0.70;0.70;;;;;;;;;;5058844;28;20445;-71
2023/07/12 05:08:47;;;;;;;0.80;0.77;;;;;;;;;;5051033;28;20451;-72
2023/07/12 05:11:14;;;;;;;0.70;0.60;;;;;;;;;;5055261;28;20502;-71
2023/07/12 05:13:41;;;;;;;0.70;0.60;;;;;;;;;;5059523;28;20441;-72
2023/07/12 05:16:07;;;;;;;0.70;0.60;;;;;;;;;;5055545;28;20495;-73
2023/07/12 05:18:34;;;;;;;0.70;0.70;;;;;;;;;;5053186;28;20984;-70
2023/07/12 05:21:01;;;;;;;0.70;0.60;;;;;;;;;;5050565;28;20519;-73
2023/07/12 05:23:29;;;;;;;0.70;0.60;;;;;;;;;;5054877;28;20957;-72
2023/07/12 05:25:56;;;;;;;0.70;0.70;;;;;;;;;;5053497;28;21010;-72
2023/07/12 05:28:22;;;;;;;0.70;0.70;;;;;;;;;;5051236;28;20506;-72
2023/07/12 05:30:49;;;;;;;0.70;0.60;;;;;;;;;;5056800;28;20526;-72
2023/07/12 05:33:16;;;;;;;0.80;0.70;;;;;;;;;;5061478;28;20433;-73
2023/07/12 05:35:42;;;;;;;0.70;0.70;;;;;;;;;;5059037;28;20524;-73
2023/07/12 05:38:09;;;;;;;0.70;0.60;;;;;;;;;;5056240;28;20552;-73
2023/07/12 05:40:37;;;;;;;0.80;0.80;;;;;;;;;;5051708;28;21054;-72
2023/07/12 05:43:05;;;;;;;0.70;0.63;;;;;;;;;;5051233;28;20480;-70
2023/07/12 05:45:31;;;;;;;1.33;1.23;;;;;;;;;;5054098;28;20437;-73
2023/07/12 05:47:58;;;;;;;0.70;0.70;;;;;;;;;;5047612;28;20438;-73
2023/07/12 05:50:26;;;;;;;0.80;0.70;;;;;;;;;;5050800;28;20440;-71
2023/07/12 05:52:52;;;;;;;0.70;0.67;;;;;;;;;;5057597;28;20907;-73
2023/07/12 05:55:19;;;;;;;0.70;0.70;;;;;;;;;;5057851;28;20435;-73
2023/07/12 05:57:48;;;;;;;0.80;0.80;;;;;;;;;;5053980;28;20439;-72
2023/07/12 06:00:15;;;;;;;0.70;0.60;;;;;;;;;;5058474;28;20473;-74
2023/07/12 06:02:42;;;;;;;1.97;1.30;;;;;;;;;;5056273;28;21075;-74
2023/07/12 06:05:10;;;;;;;0.80;0.70;;;;;;;;;;5054482;28;20442;-74
2023/07/12 06:07:36;;;;;;;0.70;0.70;;;;;;;;;;5057860;28;20457;-72
2023/07/12 06:10:04;;;;;;;0.70;0.60;;;;;;;;;;5061151;28;20924;-72
2023/07/12 06:12:30;;;;;;;0.70;0.70;;;;;;;;;;5056269;28;20874;-74
2023/07/12 06:14:59;;;;;;;0.70;0.70;;;;;;;;;;5056811;28;20446;-73
2023/07/12 06:17:26;;;;;;;0.70;0.60;;;;;;;;;;5048577;28;20446;-73
2023/07/12 06:19:53;;;;;;;0.70;0.70;;;;;;;;;;5039113;28;20477;-72
2023/07/12 06:22:20;;;;;;;0.70;0.60;;;;;;;;;;5053462;28;20482;-73
2023/07/12 06:24:46;;;;;;;0.70;0.60;;;;;;;;;;5046477;28;20468;-75
2023/07/12 06:27:13;;;;;;;0.70;0.67;;;;;;;;;;5056253;28;20472;-75
2023/07/12 06:29:40;;;;;;;0.70;0.70;;;;;;;;;;5055604;28;20451;-74
2023/07/12 06:32:09;;;;;;;0.70;0.70;;;;;;;;;;5055815;28;20538;-75
2023/07/12 06:34:36;;;;;;;0.70;0.67;;;;;;;;;;5055082;28;20451;-72
2023/07/12 06:37:02;;;;;;;0.80;0.70;;;;;;;;;;5050787;28;20454;-73
2023/07/12 06:39:29;;;;;;;0.73;0.70;;;;;;;;;;5055667;28;20514;-74
2023/07/12 06:41:55;;;;;;;0.70;0.70;;;;;;;;;;5053191;28;20529;-74
2023/07/12 06:44:30;;;;;;;0.70;0.60;;;;;;;;;;5054045;28;20459;-72
2023/07/12 06:46:57;;;;;;;0.70;0.70;;;;;;;;;;5056669;28;20974;-72
2023/07/12 06:49:25;;;;;;;0.77;0.70;;;;;;;;;;5055665;28;20463;-74
2023/07/12 06:51:52;;;;;;;0.70;0.63;;;;;;;;;;5054570;28;20447;-73
2023/07/12 06:54:18;;;;;;;0.70;0.60;;;;;;;;;;5055124;28;20546;-75
2023/07/12 06:56:48;;;;;;;0.77;0.67;;;;;;;;;;5052233;28;20436;-72
2023/07/12 06:59:14;;;;;;;0.80;0.70;;;;;;;;;;5053868;28;20435;-75
2023/07/12 07:01:41;;;;;;;0.73;0.70;;;;;;;;;;5057615;28;20446;-74
2023/07/12 07:04:07;;;;;;;0.80;0.70;;;;;;;;;;5054248;28;20477;-75
2023/07/12 07:06:36;;;;;;;0.70;0.70;;;;;;;;;;5051376;28;20485;-75
2023/07/12 07:09:03;;;;;;;0.80;0.80;;;;;;;;;;5050237;28;20522;-74
2023/07/12 07:11:30;;;;;;;0.80;0.70;;;;;;;;;;5053327;28;20459;-74
2023/07/12 07:13:57;;;;;;;0.70;0.70;;;;;;;;;;5055294;28;20467;-74
2023/07/12 07:16:24;;;;;;;0.70;0.60;;;;;;;;;;5059217;28;20856;-75
2023/07/12 07:18:53;;;;;;;0.70;0.70;;;;;;;;;;5057073;28;20435;-73
2023/07/12 07:21:19;;;;;;;0.80;0.80;;;;;;;;;;5057290;28;20464;-75
2023/07/12 07:23:47;;;;;;;0.90;0.90;;;;;;;;;;5055961;28;20851;-75
2023/07/12 07:26:15;;;;;;;0.80;0.70;;;;;;;;;;5056253;28;20469;-75
2023/07/12 07:28:43;;;;;;;0.70;0.60;;;;;;;;;;5055551;28;20440;-73
2023/07/12 07:31:10;;;;;;;0.80;0.73;;;;;;;;;;5064510;28;20470;-75
2023/07/12 07:33:39;;;;;;;0.80;0.73;;;;;;;;;;5065241;28;20468;-75
2023/07/12 07:36:08;;;;;;;0.70;0.70;;;;;;;;;;5057805;28;20498;-73
2023/07/12 07:38:37;;;;;;;0.80;0.77;;;;;;;;;;5053617;28;20448;-75
2023/07/12 07:41:06;;;;;;;0.73;0.70;;;;;;;;;;5056132;28;20476;-73
2023/07/12 07:43:32;;;;;;;0.70;0.70;;;;;;;;;;5036511;28;20471;-76
2023/07/12 07:45:59;;;;;;;1.00;1.00;;;;;;;;;;5063536;28;20493;-75
2023/07/12 07:48:26;;;;;;;0.70;0.60;;;;;;;;;;5049933;28;20441;-75
2023/07/12 07:50:53;;;;;;;0.80;0.80;;;;;;;;;;5057087;28;20437;-75
2023/07/12 07:53:20;;;;;;;1.00;0.90;;;;;;;;;;5057977;28;20452;-74
2023/07/12 07:55:48;;;;;;;0.70;0.60;;;;;;;;;;5057753;28;20880;-75
2023/07/12 07:58:16;;;;;;;0.70;0.60;;;;;;;;;;5055261;28;20471;-72
2023/07/12 08:00:44;;;;;;;0.70;0.70;;;;;;;;;;5059562;28;20467;-76
2023/07/12 08:03:14;;;;;;;1.00;0.90;;;;;;;;;;5060069;28;20440;-76
2023/07/12 08:05:41;;;;;;;0.80;0.70;;;;;;;;;;5054623;28;20932;-75
2023/07/12 08:08:08;;;;;;;0.70;0.70;;;;;;;;;;5061621;28;20466;-74
2023/07/12 08:10:35;;;;;;;0.70;0.60;;;;;;;;;;5058308;28;20968;-76
2023/07/12 08:13:03;;;;;;;0.70;0.70;;;;;;;;;;5045749;28;20455;-75
2023/07/12 08:15:31;;;;;;;1.63;1.53;;;;;;;;;;5060722;28;20462;-75
2023/07/12 08:17:57;;;;;;;1.00;0.90;;;;;;;;;;5051763;28;20436;-71
2023/07/12 08:20:25;;;;;;;0.80;0.70;;;;;;;;;;5054822;28;20525;-74
2023/07/12 08:22:52;;;;;;;0.70;0.70;;;;;;;;;;5052138;28;20512;-72
2023/07/12 08:25:50;;;;;;;0.80;0.77;;;;;;;;;;5057031;28;20410;-74
2023/07/12 08:28:17;;;;;;;0.70;0.60;;;;;;;;;;5060243;28;20406;-74
2023/07/12 08:30:44;;;;;;;0.80;0.80;;;;;;;;;;5055424;28;20799;-75
2023/07/12 08:33:11;;;;;;;0.70;0.60;;;;;;;;;;5052602;28;20415;-73
2023/07/12 08:35:38;;;;;;;0.70;0.60;;;;;;;;;;5059476;28;20429;-74
2023/07/12 08:38:15;;;;;;;0.70;0.60;;;;;;;;;;5052515;28;20431;-74
2023/07/12 08:40:43;;;;;;;0.80;0.70;;;;;;;;;;5058948;28;20442;-76
2023/07/12 08:43:12;;;;;;;0.80;0.70;;;;;;;;;;5056230;28;20412;-73
2023/07/12 08:45:39;;;;;;;0.83;0.83;;;;;;;;;;5054366;28;20471;-75
2023/07/12 08:48:14;;;;;;;0.77;0.67;;;;;;;;;;5055317;28;20414;-75
2023/07/12 08:50:44;;;;;;;0.77;0.70;;;;;;;;;;5053923;28;20436;-73
2023/07/12 08:53:11;;;;;;;0.80;0.70;;;;;;;;;;5055363;28;20452;-71
2023/07/12 08:55:38;;;;;;;0.80;0.70;;;;;;;;;;5057838;28;20413;-75
2023/07/12 08:58:12;;;;;;;0.80;0.70;;;;;;;;;;5057189;28;20410;-76
2023/07/12 09:00:39;;;;;;;0.80;0.80;;;;;;;;;;5053442;28;20434;-77
2023/07/12 09:03:09;;;;;;;0.80;0.70;;;;;;;;;;5058586;28;20505;-75
2023/07/12 09:05:37;;;;;;;0.70;0.60;;;;;;;;;;5059847;28;20443;-76
2023/07/12 09:08:17;;;;;;;0.87;0.87;;;;;;;;;;5053810;28;20443;-78
2023/07/12 09:10:48;;;;;;;0.70;0.70;;;;;;;;;;5033945;28;21231;-76
2023/07/12 09:13:17;;;;;;;0.83;0.77;;;;;;;;;;5051021;28;20426;-78
2023/07/12 09:15:46;;;;;;;0.77;0.70;;;;;;;;;;5062023;28;20525;-76
2023/07/12 09:18:24;;;;;;;0.70;0.60;;;;;;;;;;5058909;28;20435;-80
2023/07/12 09:20:51;;;;;;;0.80;0.80;;;;;;;;;;5056138;28;21071;-77
2023/07/12 09:23:18;;;;;;;0.70;0.60;;;;;;;;;;5054520;28;20975;-78
2023/07/12 09:25:47;;;;;;;0.70;0.60;;;;;;;;;;5051341;28;20419;-76
2023/07/12 09:28:15;;;;;;;0.80;0.80;;;;;;;;;;5060700;28;20431;-75
2023/07/12 09:30:42;;;;;;;0.70;0.60;;;;;;;;;;5058723;28;20414;-79
2023/07/12 09:33:15;;;;;;;0.70;0.60;;;;;;;;;;5051881;28;20764;-75
2023/07/12 09:35:45;;;;;;;0.80;0.70;;;;;;;;;;5061263;28;20431;-74
2023/07/12 09:38:13;;;;;;;0.70;0.60;;;;;;;;;;5048983;28;20505;-78
2023/07/12 09:40:40;;;;;;;0.77;0.70;;;;;;;;;;5058075;28;20576;-78
2023/07/12 09:43:14;;;;;;;0.70;0.67;;;;;;;;;;5054555;28;20485;-78
2023/07/12 09:45:42;;;;;;;1.00;0.87;;;;;;;;;;5050958;28;20539;-75
2023/07/12 09:48:40;;;;;;;1.10;1.00;;;;;;;;;;5053541;28;20428;-78
2023/07/12 09:51:15;;;;;;;0.77;0.70;;;;;;;;;;5047688;28;20482;-76
2023/07/12 09:53:46;;;;;;;0.80;0.70;;;;;;;;;;5057052;28;20451;-77
2023/07/12 09:56:18;;;;;;;0.80;0.70;;;;;;;;;;5062076;28;20427;-76
2023/07/12 09:58:50;;;;;;;0.70;0.60;;;;;;;;;;5057045;28;20431;-79
2023/07/12 10:01:22;;;;;;;0.80;0.70;;;;;;;;;;5058878;28;20511;-74
2023/07/12 10:03:52;;;;;;;0.80;0.77;;;;;;;;;;5054445;28;20431;-76
2023/07/12 10:06:30;;;;;;;0.80;0.70;;;;;;;;;;5053538;28;20745;-80
2023/07/12 10:08:59;;;;;;;2.50;1.63;;;;;;;;;;5047838;28;20427;-76
2023/07/12 10:11:30;;;;;;;0.70;0.60;;;;;;;;;;5045283;28;20424;-76
2023/07/12 10:13:58;;;;;;;0.80;0.70;;;;;;;;;;5055619;28;20442;-75
2023/07/12 10:16:27;;;;;;;0.80;0.63;;;;;;;;;;5052268;28;20474;-77
2023/07/12 10:18:55;;;;;;;0.70;0.60;;;;;;;;;;5053040;28;20826;-77
2023/07/12 10:21:22;;;;;;;0.70;0.60;;;;;;;;;;5044388;28;20471;-78
2023/07/12 10:23:53;;;;;;;0.80;0.70;;;;;;;;;;5058917;28;20491;-78
2023/07/12 10:26:20;;;;;;;0.70;0.70;;;;;;;;;;5055048;28;20443;-78
2023/07/12 10:28:50;;;;;;;0.77;0.67;;;;;;;;;;5055902;28;20444;-75
2023/07/12 10:31:25;;;;;;;0.77;0.67;;;;;;;;;;5033304;28;20437;-79
2023/07/12 10:33:54;;;;;;;0.80;0.70;;;;;;;;;;5047265;28;20430;-76
2023/07/12 10:36:23;;;;;;;0.80;0.70;;;;;;;;;;5057887;28;20435;-75
2023/07/12 10:38:52;;;;;;;0.70;0.70;;;;;;;;;;5054137;28;20491;-77
2023/07/12 10:41:21;;;;;;;0.70;0.60;;;;;;;;;;5060764;28;20467;-78
2023/07/12 10:43:51;;;;;;;0.80;0.70;;;;;;;;;;5056996;28;20432;-80
2023/07/12 10:46:21;;;;;;;0.80;0.80;;;;;;;;;;5045372;28;20493;-79
2023/07/12 10:48:49;;;;;;;0.80;0.60;;;;;;;;;;5058401;28;20432;-78
2023/07/12 10:51:17;;;;;;;2.03;1.90;;;;;;;;;;5063931;28;20477;-78
2023/07/12 10:53:49;;;;;;;0.70;0.60;;;;;;;;;;5060683;28;20463;-79
2023/07/12 10:56:18;;;;;;;0.70;0.60;;;;;;;;;;5063311;28;20470;-78
2023/07/12 10:58:48;;;;;;;0.70;0.60;;;;;;;;;;5062442;28;20429;-74
2023/07/12 11:01:34;;;;;;;0.80;0.70;;;;;;;;;;5066127;28;20468;-79
2023/07/12 11:04:08;;;;;;;0.70;0.60;;;;;;;;;;5058893;28;20522;-77
2023/07/12 11:06:34;;;;;;;0.90;0.90;;;;;;;;;;5057410;28;20967;-76
2023/07/12 11:09:06;;;;;;;0.70;0.60;;;;;;;;;;5062274;28;21140;-80
2023/07/12 11:11:40;;;;;;;0.70;0.60;;;;;;;;;;5048567;28;20457;-78
2023/07/12 11:14:15;;;;;;;0.70;0.60;;;;;;;;;;5060653;28;20438;-74
2023/07/12 11:16:47;;;;;;;0.70;0.50;;;;;;;;;;5045176;28;20428;-80
2023/07/12 11:19:44;;;;;;;0.70;0.50;;;;;;;;;;5060190;28;20846;-75
2023/07/12 11:22:12;;;;;;;0.80;0.70;;;;;;;;;;4992447;28;20483;-76
2023/07/12 11:24:52;;;;;;;0.70;0.50;;;;;;;;;;5061637;28;20486;-75
2023/07/12 11:27:32;;;;;;;0.70;0.50;;;;;;;;;;5042808;28;20951;-78
2023/07/12 11:30:12;;;;;;;0.70;0.60;;;;;;;;;;5052429;28;20527;-75
2023/07/12 11:32:40;;;;;;;0.70;0.57;;;;;;;;;;5043446;28;20464;-73
2023/07/12 11:35:12;;;;;;;1.20;0.77;;;;;;;;;;5061602;28;20443;-76
2023/07/12 11:37:41;;;;;;;0.70;0.60;;;;;;;;;;5061663;28;21361;-75
2023/07/12 11:40:15;;;;;;;0.70;0.60;;;;;;;;;;5054525;28;20450;-75
2023/07/12 11:42:46;;;;;;;2.30;0.90;;;;;;;;;;5060093;28;20879;-75
2023/07/12 11:45:14;;;;;;;0.70;0.60;;;;;;;;;;5038618;28;20454;-75
2023/07/12 11:47:45;;;;;;;0.70;0.60;;;;;;;;;;5060944;28;21035;-75
2023/07/12 11:50:18;;;;;;;0.70;0.53;;;;;;;;;;5060855;28;20465;-75
2023/07/12 11:52:44;;;;;;;0.70;0.50;;;;;;;;;;5055755;28;20457;-79
2023/07/12 11:55:16;;;;;;;0.70;0.57;;;;;;;;;;5063740;28;20528;-79
2023/07/12 11:57:43;;;;;;;0.80;0.70;;;;;;;;;;5037672;28;20539;-79
2023/07/12 12:00:16;;;;;;;1.40;0.73;;;;;;;;;;5051399;28;20455;-79
2023/07/12 12:02:50;;;;;;;0.70;0.60;;;;;;;;;;5053914;28;20853;-79
2023/07/12 12:05:21;;;;;;;0.70;0.60;;;;;;;;;;5066482;28;20514;-74
2023/07/12 12:07:48;;;;;;;0.70;0.50;;;;;;;;;;5057461;28;20499;-75
2023/07/12 12:10:20;;;;;;;0.70;0.53;;;;;;;;;;5055733;28;20448;-79
2023/07/12 12:12:48;;;;;;;0.70;0.50;;;;;;;;;;5053392;28;20557;-79
2023/07/12 12:15:21;;;;;;;0.70;0.50;;;;;;;;;;5056540;28;20490;-75
2023/07/12 12:17:50;;;;;;;0.70;0.60;;;;;;;;;;5054085;28;20601;-81
2023/07/12 12:20:18;;;;;;;0.70;0.57;;;;;;;;;;5056917;28;20498;-78
2023/07/12 12:22:50;;;;;;;0.80;0.70;;;;;;;;;;5057540;28;20837;-78
2023/07/12 12:25:17;;;;;;;2.33;1.07;;;;;;;;;;5062213;28;20439;-76
2023/07/12 12:27:46;;;;;;;0.70;0.60;;;;;;;;;;5052895;28;20444;-74
2023/07/12 12:30:18;;;;;;;0.70;0.53;;;;;;;;;;5060608;28;20821;-75
2023/07/12 12:32:58;;;;;;;0.70;0.60;;;;;;;;;;5058315;28;20424;-74
2023/07/12 12:35:25;;;;;;;0.70;0.60;;;;;;;;;;5055565;28;20943;-82
2023/07/12 12:37:55;;;;;;;0.70;0.50;;;;;;;;;;5049067;28;20558;-77
2023/07/12 12:40:22;;;;;;;0.70;0.50;;;;;;;;;;5052864;28;20855;-73
2023/07/12 12:42:51;;;;;;;0.70;0.50;;;;;;;;;;5057584;28;20476;-78
2023/07/12 12:45:18;;;;;;;0.70;0.60;;;;;;;;;;5055786;28;20475;-79
2023/07/12 12:47:45;;;;;;;0.70;0.50;;;;;;;;;;5055932;28;20853;-81
2023/07/12 12:50:22;;;;;;;0.80;0.50;;;;;;;;;;5038240;28;20539;-77
2023/07/12 12:52:51;;;;;;;0.80;0.63;;;;;;;;;;5045375;28;20574;-80
2023/07/12 12:55:22;;;;;;;0.70;0.50;;;;;;;;;;5058133;28;20492;-78
2023/07/12 12:57:52;;;;;;;0.70;0.50;;;;;;;;;;5054457;28;20437;-79
2023/07/12 13:00:39;;;;;;;1.00;0.60;;;;;;;;;;5045840;28;20450;-75
2023/07/12 13:03:12;;;;;;;0.80;0.50;;;;;;;;;;5057292;28;20455;-76
2023/07/12 13:05:42;;;;;;;0.80;0.50;;;;;;;;;;5057737;28;20452;-81
2023/07/12 13:08:17;;;;;;;0.80;0.60;;;;;;;;;;5067812;28;20463;-79
2023/07/12 13:10:48;;;;;;;1.00;0.90;;;;;;;;;;5049498;28;20468;-81
2023/07/12 13:13:21;;;;;;;0.70;0.50;;;;;;;;;;5034355;28;21089;-79
2023/07/12 13:15:52;;;;;;;0.70;0.50;;;;;;;;;;5056877;28;20840;-76
2023/07/12 13:18:40;;;;;;;0.80;0.70;;;;;;;;;;5059970;28;20449;-79
2023/07/12 13:21:14;;;;;;;0.70;0.50;;;;;;;;;;5059976;28;20531;-76
2023/07/12 13:23:41;;;;;;;0.70;0.60;;;;;;;;;;5059512;28;20447;-75
2023/07/12 13:26:10;;;;;;;0.70;0.60;;;;;;;;;;5062352;28;20430;-77
2023/07/12 13:28:37;;;;;;;0.70;0.60;;;;;;;;;;5054967;28;20444;-79
2023/07/12 13:31:03;;;;;;;0.80;0.70;;;;;;;;;;5053341;28;20534;-81
2023/07/12 13:33:30;;;;;;;0.70;0.50;;;;;;;;;;5056270;28;20993;-80
2023/07/12 13:35:57;;;;;;;1.03;0.93;;;;;;;;;;5043564;28;20445;-76
2023/07/12 13:38:29;;;;;;;0.70;0.50;;;;;;;;;;5039422;28;20551;-78
2023/07/12 13:40:58;;;;;;;0.80;0.60;;;;;;;;;;5042083;28;20527;-81
2023/07/12 13:43:29;;;;;;;0.80;0.50;;;;;;;;;;5038402;28;20509;-80
2023/07/12 13:46:16;;;;;;;0.90;0.70;;;;;;;;;;5070821;28;20444;-83
2023/07/12 13:48:44;;;;;;;0.80;0.50;;;;;;;;;;5049468;28;20547;-79
2023/07/12 13:51:17;;;;;;;0.90;0.70;;;;;;;;;;5060349;28;20481;-79
2023/07/12 13:53:48;;;;;;;0.80;0.70;;;;;;;;;;5040225;28;20463;-74
2023/07/12 13:56:15;;;;;;;0.70;0.60;;;;;;;;;;5053915;28;20813;-79
2023/07/12 13:58:44;;;;;;;0.70;0.50;;;;;;;;;;5048865;28;20843;-78
2023/07/12 14:01:15;;;;;;;1.20;0.90;;;;;;;;;;5054640;28;20432;-79
2023/07/12 14:03:45;;;;;;;0.70;0.50;;;;;;;;;;5053402;28;20460;-78
2023/07/12 14:06:13;;;;;;;0.70;0.50;;;;;;;;;;5058397;28;20948;-80
2023/07/12 14:09:01;;;;;;;0.80;0.60;;;;;;;;;;5054830;28;20951;-79
2023/07/12 14:11:29;;;;;;;0.70;0.50;;;;;;;;;;5049686;28;20455;-77
2023/07/12 14:13:56;;;;;;;0.70;0.60;;;;;;;;;;5052034;28;20523;-77
2023/07/12 14:16:23;;;;;;;0.70;0.50;;;;;;;;;;5057783;28;20455;-78
2023/07/12 14:18:51;;;;;;;0.70;0.60;;;;;;;;;;5052573;28;20460;-79
2023/07/12 14:21:19;;;;;;;0.80;0.70;;;;;;;;;;5058543;28;20515;-75
2023/07/12 14:23:46;;;;;;;0.83;0.60;;;;;;;;;;5066168;28;20482;-76
2023/07/12 14:26:17;;;;;;;0.70;0.60;;;;;;;;;;5063802;28;20438;-76
2023/07/12 14:28:44;;;;;;;0.80;0.70;;;;;;;;;;5054007;28;20478;-78
2023/07/12 14:31:22;;;;;;;0.93;0.70;;;;;;;;;;5044279;28;20456;-79
2023/07/12 14:33:49;;;;;;;0.70;0.60;;;;;;;;;;5057615;28;20538;-78
2023/07/12 14:36:17;;;;;;;0.70;0.50;;;;;;;;;;5059158;28;20442;-79
2023/07/12 14:38:44;;;;;;;0.70;0.50;;;;;;;;;;5052889;28;20873;-78
2023/07/12 14:41:20;;;;;;;0.70;0.57;;;;;;;;;;5057491;28;20463;-80
2023/07/12 14:43:48;;;;;;;0.80;0.60;;;;;;;;;;5058268;28;20957;-79
2023/07/12 14:46:16;;;;;;;0.70;0.60;;;;;;;;;;5043810;28;20443;-79
2023/07/12 14:48:43;;;;;;;0.70;0.60;;;;;;;;;;5062854;28;20501;-78
2023/07/12 14:51:16;;;;;;;0.80;0.70;;;;;;;;;;5063660;28;20447;-79
2023/07/12 14:53:44;;;;;;;0.70;0.60;;;;;;;;;;5054561;28;20467;-79